sensor_id;sensor_type;location;lat;lon;timestamp;P1;durP1;ratioP1;P2;durP2;ratioP2
40573;SDS011;26283;49.020;8.644;2022-07-29T00:00:28;3.42;;;3.17;;
40573;SDS011;26283;49.020;8.644;2022-07-29T00:02:53;3.70;;;3.40;;
40573;SDS011;26283;49.020;8.644;2022-07-29T00:05:19;3.75;;;3.45;;
40573;SDS011;26283;49.020;8.644;2022-07-29T00:07:44;3.30;;;3.10;;
40573;SDS011;26283;49.020;8.644;2022-07-29T00:10:10;3.62;;;3.33;;
40573;SDS011;26283;49.020;8.644;2022-07-29T00:12:35;3.92;;;3.53;;
40573;SDS011;26283;49.020;8.644;2022-07-29T00:15:01;3.60;;;3.25;;
40573;SDS011;26283;49.020;8.644;2022-07-29T00:17:26;4.00;;;3.60;;
40573;SDS011;26283;49.020;8.644;2022-07-29T00:19:52;3.25;;;3.05;;
40573;SDS011;26283;49.020;8.644;2022-07-29T00:22:18;3.47;;;3.28;;
40573;SDS011;26283;49.020;8.644;2022-07-29T00:24:43;3.78;;;3.45;;
40573;SDS011;26283;49.020;8.644;2022-07-29T00:27:09;3.85;;;3.42;;
40573;SDS011;26283;49.020;8.644;2022-07-29T00:29:34;3.60;;;3.40;;
40573;SDS011;26283;49.020;8.644;2022-07-29T00:32:00;3.28;;;3.15;;
40573;SDS011;26283;49.020;8.644;2022-07-29T00:34:26;3.50;;;3.20;;
40573;SDS011;26283;49.020;8.644;2022-07-29T00:37:09;4.15;;;3.42;;
40573;SDS011;26283;49.020;8.644;2022-07-29T00:39:35;5.18;;;3.30;;
40573;SDS011;26283;49.020;8.644;2022-07-29T00:42:02;3.72;;;3.53;;
40573;SDS011;26283;49.020;8.644;2022-07-29T00:44:29;3.80;;;3.50;;
40573;SDS011;26283;49.020;8.644;2022-07-29T00:46:54;3.53;;;3.22;;
40573;SDS011;26283;49.020;8.644;2022-07-29T00:49:20;3.92;;;3.47;;
40573;SDS011;26283;49.020;8.644;2022-07-29T00:51:45;3.70;;;3.40;;
40573;SDS011;26283;49.020;8.644;2022-07-29T00:54:12;3.22;;;3.03;;
40573;SDS011;26283;49.020;8.644;2022-07-29T00:56:38;4.22;;;3.15;;
40573;SDS011;26283;49.020;8.644;2022-07-29T00:59:03;3.97;;;3.50;;
40573;SDS011;26283;49.020;8.644;2022-07-29T01:01:29;3.28;;;2.97;;
40573;SDS011;26283;49.020;8.644;2022-07-29T01:03:54;3.33;;;3.08;;
40573;SDS011;26283;49.020;8.644;2022-07-29T01:06:19;3.60;;;3.30;;
40573;SDS011;26283;49.020;8.644;2022-07-29T01:08:46;3.37;;;3.08;;
40573;SDS011;26283;49.020;8.644;2022-07-29T01:11:12;3.50;;;3.20;;
40573;SDS011;26283;49.020;8.644;2022-07-29T01:13:39;3.25;;;2.97;;
40573;SDS011;26283;49.020;8.644;2022-07-29T01:16:10;3.37;;;3.08;;
40573;SDS011;26283;49.020;8.644;2022-07-29T01:18:42;3.25;;;3.05;;
40573;SDS011;26283;49.020;8.644;2022-07-29T01:31:58;4.15;;;3.87;;
40573;SDS011;26283;49.020;8.644;2022-07-29T01:37:08;4.12;;;3.83;;
40573;SDS011;26283;49.020;8.644;2022-07-29T01:39:40;4.00;;;3.70;;
40573;SDS011;26283;49.020;8.644;2022-07-29T01:42:43;4.15;;;3.83;;
40573;SDS011;26283;49.020;8.644;2022-07-29T01:48:58;3.87;;;3.58;;
40573;SDS011;26283;49.020;8.644;2022-07-29T01:50:58;4.30;;;3.83;;
40573;SDS011;26283;49.020;8.644;2022-07-29T01:53:32;4.07;;;3.70;;
40573;SDS011;26283;49.020;8.644;2022-07-29T01:56:01;3.85;;;3.55;;
40573;SDS011;26283;49.020;8.644;2022-07-29T01:58:28;3.50;;;3.30;;
40573;SDS011;26283;49.020;8.644;2022-07-29T02:00:56;4.00;;;3.70;;
40573;SDS011;26283;49.020;8.644;2022-07-29T02:03:23;3.97;;;3.67;;
40573;SDS011;26283;49.020;8.644;2022-07-29T02:05:51;3.92;;;3.70;;
40573;SDS011;26283;49.020;8.644;2022-07-29T02:08:17;4.17;;;3.87;;
40573;SDS011;26283;49.020;8.644;2022-07-29T02:10:44;4.10;;;3.80;;
40573;SDS011;26283;49.020;8.644;2022-07-29T02:13:12;3.60;;;3.30;;
40573;SDS011;26283;49.020;8.644;2022-07-29T02:15:40;3.90;;;3.60;;
40573;SDS011;26283;49.020;8.644;2022-07-29T02:18:09;3.50;;;3.30;;
40573;SDS011;26283;49.020;8.644;2022-07-29T02:20:39;4.37;;;3.77;;
40573;SDS011;26283;49.020;8.644;2022-07-29T02:23:10;3.70;;;3.40;;
40573;SDS011;26283;49.020;8.644;2022-07-29T02:25:37;4.00;;;3.67;;
40573;SDS011;26283;49.020;8.644;2022-07-29T02:28:06;4.17;;;3.87;;
40573;SDS011;26283;49.020;8.644;2022-07-29T02:30:32;4.17;;;3.80;;
40573;SDS011;26283;49.020;8.644;2022-07-29T02:33:01;4.78;;;4.07;;
40573;SDS011;26283;49.020;8.644;2022-07-29T02:35:28;3.60;;;3.30;;
40573;SDS011;26283;49.020;8.644;2022-07-29T02:37:54;3.77;;;3.53;;
40573;SDS011;26283;49.020;8.644;2022-07-29T02:40:38;4.10;;;3.80;;
40573;SDS011;26283;49.020;8.644;2022-07-29T02:43:07;4.97;;;3.53;;
40573;SDS011;26283;49.020;8.644;2022-07-29T02:45:34;3.83;;;3.50;;
40573;SDS011;26283;49.020;8.644;2022-07-29T02:48:00;3.60;;;3.40;;
40573;SDS011;26283;49.020;8.644;2022-07-29T02:50:54;3.90;;;3.60;;
40573;SDS011;26283;49.020;8.644;2022-07-29T02:53:22;4.17;;;3.90;;
40573;SDS011;26283;49.020;8.644;2022-07-29T02:58:40;3.60;;;3.40;;
40573;SDS011;26283;49.020;8.644;2022-07-29T03:01:13;4.00;;;3.70;;
40573;SDS011;26283;49.020;8.644;2022-07-29T03:03:42;3.60;;;3.40;;
40573;SDS011;26283;49.020;8.644;2022-07-29T03:06:09;3.63;;;3.43;;
40573;SDS011;26283;49.020;8.644;2022-07-29T03:08:38;3.47;;;3.20;;
40573;SDS011;26283;49.020;8.644;2022-07-29T03:11:04;3.50;;;3.27;;
40573;SDS011;26283;49.020;8.644;2022-07-29T03:13:30;3.53;;;3.27;;
40573;SDS011;26283;49.020;8.644;2022-07-29T03:15:56;3.20;;;3.00;;
40573;SDS011;26283;49.020;8.644;2022-07-29T03:18:23;3.87;;;3.57;;
40573;SDS011;26283;49.020;8.644;2022-07-29T03:20:50;3.87;;;3.57;;
40573;SDS011;26283;49.020;8.644;2022-07-29T03:23:19;5.13;;;3.50;;
40573;SDS011;26283;49.020;8.644;2022-07-29T03:25:47;3.60;;;3.30;;
40573;SDS011;26283;49.020;8.644;2022-07-29T03:28:14;3.70;;;3.50;;
40573;SDS011;26283;49.020;8.644;2022-07-29T03:30:39;3.40;;;3.20;;
40573;SDS011;26283;49.020;8.644;2022-07-29T03:33:05;3.30;;;3.10;;
40573;SDS011;26283;49.020;8.644;2022-07-29T03:35:30;3.70;;;3.40;;
40573;SDS011;26283;49.020;8.644;2022-07-29T03:37:56;3.50;;;3.30;;
40573;SDS011;26283;49.020;8.644;2022-07-29T03:40:25;3.53;;;3.30;;
40573;SDS011;26283;49.020;8.644;2022-07-29T03:42:55;3.30;;;3.10;;
40573;SDS011;26283;49.020;8.644;2022-07-29T03:45:22;3.50;;;3.30;;
40573;SDS011;26283;49.020;8.644;2022-07-29T03:47:51;3.60;;;3.30;;
40573;SDS011;26283;49.020;8.644;2022-07-29T03:50:20;3.57;;;3.37;;
40573;SDS011;26283;49.020;8.644;2022-07-29T03:52:47;3.40;;;3.20;;
40573;SDS011;26283;49.020;8.644;2022-07-29T03:55:13;3.60;;;3.40;;
40573;SDS011;26283;49.020;8.644;2022-07-29T03:57:39;3.63;;;3.33;;
40573;SDS011;26283;49.020;8.644;2022-07-29T04:00:06;3.50;;;3.30;;
40573;SDS011;26283;49.020;8.644;2022-07-29T04:02:32;4.77;;;3.60;;
40573;SDS011;26283;49.020;8.644;2022-07-29T04:04:59;3.70;;;3.40;;
40573;SDS011;26283;49.020;8.644;2022-07-29T04:07:24;3.70;;;3.40;;
40573;SDS011;26283;49.020;8.644;2022-07-29T04:09:50;3.60;;;3.30;;
40573;SDS011;26283;49.020;8.644;2022-07-29T04:12:15;4.00;;;3.80;;
40573;SDS011;26283;49.020;8.644;2022-07-29T04:14:41;4.10;;;3.80;;
40573;SDS011;26283;49.020;8.644;2022-07-29T04:17:06;4.50;;;4.17;;
40573;SDS011;26283;49.020;8.644;2022-07-29T04:19:32;3.70;;;3.50;;
40573;SDS011;26283;49.020;8.644;2022-07-29T04:21:58;3.70;;;3.40;;
40573;SDS011;26283;49.020;8.644;2022-07-29T04:24:24;4.00;;;3.80;;
40573;SDS011;26283;49.020;8.644;2022-07-29T04:26:50;4.20;;;3.80;;
40573;SDS011;26283;49.020;8.644;2022-07-29T04:29:16;3.97;;;3.67;;
40573;SDS011;26283;49.020;8.644;2022-07-29T04:31:41;4.50;;;4.10;;
40573;SDS011;26283;49.020;8.644;2022-07-29T04:34:07;4.07;;;3.87;;
40573;SDS011;26283;49.020;8.644;2022-07-29T04:36:34;4.03;;;3.83;;
40573;SDS011;26283;49.020;8.644;2022-07-29T04:38:59;4.30;;;4.00;;
40573;SDS011;26283;49.020;8.644;2022-07-29T04:41:26;4.80;;;4.40;;
40573;SDS011;26283;49.020;8.644;2022-07-29T04:43:51;4.40;;;4.20;;
40573;SDS011;26283;49.020;8.644;2022-07-29T04:46:17;4.43;;;4.13;;
40573;SDS011;26283;49.020;8.644;2022-07-29T04:48:42;4.20;;;3.90;;
40573;SDS011;26283;49.020;8.644;2022-07-29T04:51:10;4.30;;;4.00;;
40573;SDS011;26283;49.020;8.644;2022-07-29T04:53:36;4.63;;;4.20;;
40573;SDS011;26283;49.020;8.644;2022-07-29T04:56:01;4.60;;;4.20;;
40573;SDS011;26283;49.020;8.644;2022-07-29T04:58:27;4.47;;;4.17;;
40573;SDS011;26283;49.020;8.644;2022-07-29T05:00:52;4.17;;;3.97;;
40573;SDS011;26283;49.020;8.644;2022-07-29T05:03:18;5.67;;;4.20;;
40573;SDS011;26283;49.020;8.644;2022-07-29T05:05:43;4.80;;;4.50;;
40573;SDS011;26283;49.020;8.644;2022-07-29T05:08:09;5.23;;;4.77;;
40573;SDS011;26283;49.020;8.644;2022-07-29T05:10:34;4.83;;;4.40;;
40573;SDS011;26283;49.020;8.644;2022-07-29T05:13:03;5.00;;;4.60;;
40573;SDS011;26283;49.020;8.644;2022-07-29T05:15:31;4.03;;;3.73;;
40573;SDS011;26283;49.020;8.644;2022-07-29T05:17:56;3.87;;;3.67;;
40573;SDS011;26283;49.020;8.644;2022-07-29T05:20:21;3.93;;;3.73;;
40573;SDS011;26283;49.020;8.644;2022-07-29T05:22:51;3.77;;;3.57;;
40573;SDS011;26283;49.020;8.644;2022-07-29T05:25:17;4.40;;;4.00;;
40573;SDS011;26283;49.020;8.644;2022-07-29T05:27:42;3.90;;;3.60;;
40573;SDS011;26283;49.020;8.644;2022-07-29T05:30:08;4.27;;;4.00;;
40573;SDS011;26283;49.020;8.644;2022-07-29T05:32:34;4.40;;;4.10;;
40573;SDS011;26283;49.020;8.644;2022-07-29T05:34:59;4.27;;;4.03;;
40573;SDS011;26283;49.020;8.644;2022-07-29T05:37:25;3.83;;;3.53;;
40573;SDS011;26283;49.020;8.644;2022-07-29T05:39:50;4.77;;;4.43;;
40573;SDS011;26283;49.020;8.644;2022-07-29T05:42:15;4.60;;;4.30;;
40573;SDS011;26283;49.020;8.644;2022-07-29T05:44:41;4.43;;;4.10;;
40573;SDS011;26283;49.020;8.644;2022-07-29T05:47:06;6.57;;;4.43;;
40573;SDS011;26283;49.020;8.644;2022-07-29T05:49:32;8.77;;;4.97;;
40573;SDS011;26283;49.020;8.644;2022-07-29T05:51:57;7.70;;;4.87;;
40573;SDS011;26283;49.020;8.644;2022-07-29T05:54:23;13.70;;;5.10;;
40573;SDS011;26283;49.020;8.644;2022-07-29T05:56:49;10.33;;;4.67;;
40573;SDS011;26283;49.020;8.644;2022-07-29T05:59:14;13.07;;;4.90;;
40573;SDS011;26283;49.020;8.644;2022-07-29T06:01:39;9.33;;;4.90;;
40573;SDS011;26283;49.020;8.644;2022-07-29T06:04:06;11.07;;;5.30;;
40573;SDS011;26283;49.020;8.644;2022-07-29T06:06:34;13.13;;;5.33;;
40573;SDS011;26283;49.020;8.644;2022-07-29T06:09:00;11.10;;;4.80;;
40573;SDS011;26283;49.020;8.644;2022-07-29T06:11:26;9.30;;;5.07;;
40573;SDS011;26283;49.020;8.644;2022-07-29T06:13:52;7.87;;;4.97;;
40573;SDS011;26283;49.020;8.644;2022-07-29T06:16:18;7.87;;;4.90;;
40573;SDS011;26283;49.020;8.644;2022-07-29T06:18:43;5.67;;;4.80;;
40573;SDS011;26283;49.020;8.644;2022-07-29T06:21:09;7.60;;;4.90;;
40573;SDS011;26283;49.020;8.644;2022-07-29T06:23:35;8.93;;;5.23;;
40573;SDS011;26283;49.020;8.644;2022-07-29T06:26:03;10.50;;;5.40;;
40573;SDS011;26283;49.020;8.644;2022-07-29T06:28:29;5.93;;;4.97;;
40573;SDS011;26283;49.020;8.644;2022-07-29T06:30:54;5.43;;;4.93;;
40573;SDS011;26283;49.020;8.644;2022-07-29T06:33:20;5.30;;;4.90;;
40573;SDS011;26283;49.020;8.644;2022-07-29T06:35:45;5.73;;;4.60;;
40573;SDS011;26283;49.020;8.644;2022-07-29T06:38:12;6.37;;;5.00;;
40573;SDS011;26283;49.020;8.644;2022-07-29T06:40:44;7.07;;;4.90;;
40573;SDS011;26283;49.020;8.644;2022-07-29T06:43:28;4.83;;;4.43;;
40573;SDS011;26283;49.020;8.644;2022-07-29T06:46:03;4.47;;;3.73;;
40573;SDS011;26283;49.020;8.644;2022-07-29T06:48:31;4.70;;;4.10;;
40573;SDS011;26283;49.020;8.644;2022-07-29T06:50:56;4.17;;;3.73;;
40573;SDS011;26283;49.020;8.644;2022-07-29T06:53:22;4.20;;;3.90;;
40573;SDS011;26283;49.020;8.644;2022-07-29T06:55:48;4.23;;;3.93;;
40573;SDS011;26283;49.020;8.644;2022-07-29T06:58:13;4.35;;;3.95;;
40573;SDS011;26283;49.020;8.644;2022-07-29T07:00:41;4.40;;;3.80;;
40573;SDS011;26283;49.020;8.644;2022-07-29T07:03:07;5.10;;;4.20;;
40573;SDS011;26283;49.020;8.644;2022-07-29T07:05:32;6.18;;;3.80;;
40573;SDS011;26283;49.020;8.644;2022-07-29T07:07:57;3.97;;;3.67;;
40573;SDS011;26283;49.020;8.644;2022-07-29T07:10:23;4.37;;;3.77;;
40573;SDS011;26283;49.020;8.644;2022-07-29T07:12:48;5.10;;;3.80;;
40573;SDS011;26283;49.020;8.644;2022-07-29T07:15:14;4.28;;;3.75;;
40573;SDS011;26283;49.020;8.644;2022-07-29T07:17:39;5.10;;;3.78;;
40573;SDS011;26283;49.020;8.644;2022-07-29T07:20:05;4.22;;;3.70;;
40573;SDS011;26283;49.020;8.644;2022-07-29T07:22:31;3.67;;;3.35;;
40573;SDS011;26283;49.020;8.644;2022-07-29T07:24:56;3.90;;;3.60;;
40573;SDS011;26283;49.020;8.644;2022-07-29T07:27:22;4.10;;;3.53;;
40573;SDS011;26283;49.020;8.644;2022-07-29T07:29:47;3.87;;;3.47;;
40573;SDS011;26283;49.020;8.644;2022-07-29T07:32:13;5.20;;;3.78;;
40573;SDS011;26283;49.020;8.644;2022-07-29T07:34:41;5.40;;;3.72;;
40573;SDS011;26283;49.020;8.644;2022-07-29T07:37:07;5.12;;;3.37;;
40573;SDS011;26283;49.020;8.644;2022-07-29T07:39:33;4.45;;;3.60;;
40573;SDS011;26283;49.020;8.644;2022-07-29T07:41:58;3.97;;;3.58;;
40573;SDS011;26283;49.020;8.644;2022-07-29T07:44:24;5.80;;;3.40;;
40573;SDS011;26283;49.020;8.644;2022-07-29T07:46:49;4.55;;;3.50;;
40573;SDS011;26283;49.020;8.644;2022-07-29T07:49:15;4.28;;;3.87;;
40573;SDS011;26283;49.020;8.644;2022-07-29T07:51:40;6.85;;;4.10;;
40573;SDS011;26283;49.020;8.644;2022-07-29T07:54:05;8.05;;;4.25;;
40573;SDS011;26283;49.020;8.644;2022-07-29T07:56:31;9.23;;;3.90;;
40573;SDS011;26283;49.020;8.644;2022-07-29T07:58:56;4.60;;;4.12;;
40573;SDS011;26283;49.020;8.644;2022-07-29T08:01:22;4.97;;;3.87;;
40573;SDS011;26283;49.020;8.644;2022-07-29T08:03:49;5.78;;;4.18;;
40573;SDS011;26283;49.020;8.644;2022-07-29T08:06:15;5.22;;;3.65;;
40573;SDS011;26283;49.020;8.644;2022-07-29T08:08:40;5.22;;;3.80;;
40573;SDS011;26283;49.020;8.644;2022-07-29T08:11:06;4.55;;;4.05;;
40573;SDS011;26283;49.020;8.644;2022-07-29T08:13:31;6.70;;;3.92;;
40573;SDS011;26283;49.020;8.644;2022-07-29T08:15:57;4.50;;;4.10;;
40573;SDS011;26283;49.020;8.644;2022-07-29T08:18:25;4.82;;;3.72;;
40573;SDS011;26283;49.020;8.644;2022-07-29T08:20:55;4.47;;;4.00;;
40573;SDS011;26283;49.020;8.644;2022-07-29T08:23:21;5.37;;;4.00;;
40573;SDS011;26283;49.020;8.644;2022-07-29T08:25:47;6.50;;;4.28;;
40573;SDS011;26283;49.020;8.644;2022-07-29T08:28:13;4.10;;;3.80;;
40573;SDS011;26283;49.020;8.644;2022-07-29T08:30:39;4.95;;;3.95;;
40573;SDS011;26283;49.020;8.644;2022-07-29T08:33:04;5.30;;;4.00;;
40573;SDS011;26283;49.020;8.644;2022-07-29T08:35:30;4.12;;;3.78;;
40573;SDS011;26283;49.020;8.644;2022-07-29T08:37:55;4.57;;;4.07;;
40573;SDS011;26283;49.020;8.644;2022-07-29T08:40:21;6.10;;;4.05;;
40573;SDS011;26283;49.020;8.644;2022-07-29T08:42:49;4.95;;;3.90;;
40573;SDS011;26283;49.020;8.644;2022-07-29T08:45:15;4.50;;;3.80;;
40573;SDS011;26283;49.020;8.644;2022-07-29T08:47:40;3.80;;;3.50;;
40573;SDS011;26283;49.020;8.644;2022-07-29T08:50:09;4.68;;;4.28;;
40573;SDS011;26283;49.020;8.644;2022-07-29T08:52:36;6.28;;;4.10;;
40573;SDS011;26283;49.020;8.644;2022-07-29T08:55:06;4.45;;;4.03;;
40573;SDS011;26283;49.020;8.644;2022-07-29T08:57:33;4.20;;;3.80;;
40573;SDS011;26283;49.020;8.644;2022-07-29T09:00:00;5.22;;;4.03;;
40573;SDS011;26283;49.020;8.644;2022-07-29T09:02:26;4.37;;;3.40;;
40573;SDS011;26283;49.020;8.644;2022-07-29T09:04:56;7.82;;;4.03;;
40573;SDS011;26283;49.020;8.644;2022-07-29T09:07:25;4.20;;;3.58;;
40573;SDS011;26283;49.020;8.644;2022-07-29T09:09:50;5.72;;;3.25;;
40573;SDS011;26283;49.020;8.644;2022-07-29T09:12:16;3.70;;;3.00;;
40573;SDS011;26283;49.020;8.644;2022-07-29T09:14:41;3.70;;;3.05;;
40573;SDS011;26283;49.020;8.644;2022-07-29T09:17:07;3.58;;;2.80;;
40573;SDS011;26283;49.020;8.644;2022-07-29T09:19:33;4.37;;;3.85;;
40573;SDS011;26283;49.020;8.644;2022-07-29T09:22:01;7.60;;;3.22;;
40573;SDS011;26283;49.020;8.644;2022-07-29T09:24:40;4.90;;;3.22;;
40573;SDS011;26283;49.020;8.644;2022-07-29T09:27:11;3.50;;;3.22;;
40573;SDS011;26283;49.020;8.644;2022-07-29T09:29:42;4.85;;;3.95;;
40573;SDS011;26283;49.020;8.644;2022-07-29T09:32:09;8.88;;;3.28;;
40573;SDS011;26283;49.020;8.644;2022-07-29T09:34:35;3.17;;;2.70;;
40573;SDS011;26283;49.020;8.644;2022-07-29T09:37:01;5.25;;;3.50;;
40573;SDS011;26283;49.020;8.644;2022-07-29T09:41:53;4.25;;;3.37;;
40573;SDS011;26283;49.020;8.644;2022-07-29T09:44:21;3.70;;;3.35;;
40573;SDS011;26283;49.020;8.644;2022-07-29T09:46:57;5.47;;;3.78;;
40573;SDS011;26283;49.020;8.644;2022-07-29T09:49:34;5.35;;;3.83;;
40573;SDS011;26283;49.020;8.644;2022-07-29T09:52:03;3.42;;;2.92;;
40573;SDS011;26283;49.020;8.644;2022-07-29T09:54:30;3.40;;;2.70;;
40573;SDS011;26283;49.020;8.644;2022-07-29T09:57:01;3.72;;;2.83;;
40573;SDS011;26283;49.020;8.644;2022-07-29T09:59:28;4.97;;;3.00;;
40573;SDS011;26283;49.020;8.644;2022-07-29T10:01:53;6.65;;;2.92;;
40573;SDS011;26283;49.020;8.644;2022-07-29T10:04:19;6.20;;;3.92;;
40573;SDS011;26283;49.020;8.644;2022-07-29T10:07:02;5.68;;;3.30;;
40573;SDS011;26283;49.020;8.644;2022-07-29T10:09:30;5.80;;;3.00;;
40573;SDS011;26283;49.020;8.644;2022-07-29T10:12:03;4.15;;;3.45;;
40573;SDS011;26283;49.020;8.644;2022-07-29T10:14:38;3.78;;;2.90;;
40573;SDS011;26283;49.020;8.644;2022-07-29T10:17:04;6.32;;;3.75;;
40573;SDS011;26283;49.020;8.644;2022-07-29T10:19:31;5.90;;;3.70;;
40573;SDS011;26283;49.020;8.644;2022-07-29T10:21:57;4.35;;;3.15;;
40573;SDS011;26283;49.020;8.644;2022-07-29T10:24:27;4.35;;;3.45;;
40573;SDS011;26283;49.020;8.644;2022-07-29T10:26:55;3.20;;;2.90;;
40573;SDS011;26283;49.020;8.644;2022-07-29T10:29:21;4.50;;;4.10;;
40573;SDS011;26283;49.020;8.644;2022-07-29T10:31:53;4.37;;;3.58;;
40573;SDS011;26283;49.020;8.644;2022-07-29T10:37:20;8.82;;;3.53;;
40573;SDS011;26283;49.020;8.644;2022-07-29T10:40:17;4.32;;;3.35;;
40573;SDS011;26283;49.020;8.644;2022-07-29T10:43:16;6.43;;;3.22;;
40573;SDS011;26283;49.020;8.644;2022-07-29T10:45:57;3.10;;;2.80;;
40573;SDS011;26283;49.020;8.644;2022-07-29T10:48:24;3.92;;;3.28;;
40573;SDS011;26283;49.020;8.644;2022-07-29T10:51:08;4.12;;;2.60;;
40573;SDS011;26283;49.020;8.644;2022-07-29T10:53:50;3.55;;;3.22;;
40573;SDS011;26283;49.020;8.644;2022-07-29T10:56:27;5.43;;;2.80;;
40573;SDS011;26283;49.020;8.644;2022-07-29T11:01:48;6.00;;;2.60;;
40573;SDS011;26283;49.020;8.644;2022-07-29T11:04:15;4.68;;;2.87;;
40573;SDS011;26283;49.020;8.644;2022-07-29T11:09:29;3.33;;;2.75;;
40573;SDS011;26283;49.020;8.644;2022-07-29T11:11:57;3.17;;;2.87;;
40573;SDS011;26283;49.020;8.644;2022-07-29T11:17:27;3.20;;;2.42;;
40573;SDS011;26283;49.020;8.644;2022-07-29T11:22:56;4.20;;;2.80;;
40573;SDS011;26283;49.020;8.644;2022-07-29T11:25:21;3.33;;;2.67;;
40573;SDS011;26283;49.020;8.644;2022-07-29T11:27:47;4.05;;;2.87;;
40573;SDS011;26283;49.020;8.644;2022-07-29T11:30:12;4.68;;;2.87;;
40573;SDS011;26283;49.020;8.644;2022-07-29T11:32:39;3.42;;;2.80;;
40573;SDS011;26283;49.020;8.644;2022-07-29T11:35:16;3.97;;;2.58;;
40573;SDS011;26283;49.020;8.644;2022-07-29T11:38:30;4.70;;;2.50;;
40573;SDS011;26283;49.020;8.644;2022-07-29T11:46:18;5.15;;;3.10;;
40573;SDS011;26283;49.020;8.644;2022-07-29T11:49:11;5.65;;;2.70;;
40573;SDS011;26283;49.020;8.644;2022-07-29T11:51:36;4.45;;;3.00;;
40573;SDS011;26283;49.020;8.644;2022-07-29T11:54:03;3.67;;;3.10;;
40573;SDS011;26283;49.020;8.644;2022-07-29T11:56:30;2.97;;;2.67;;
40573;SDS011;26283;49.020;8.644;2022-07-29T11:59:06;5.97;;;3.37;;
40573;SDS011;26283;49.020;8.644;2022-07-29T12:01:34;3.62;;;3.30;;
40573;SDS011;26283;49.020;8.644;2022-07-29T12:04:05;6.15;;;3.03;;
40573;SDS011;26283;49.020;8.644;2022-07-29T12:06:32;3.80;;;2.85;;
40573;SDS011;26283;49.020;8.644;2022-07-29T12:08:58;3.87;;;2.80;;
40573;SDS011;26283;49.020;8.644;2022-07-29T12:11:25;3.47;;;2.80;;
40573;SDS011;26283;49.020;8.644;2022-07-29T12:13:50;3.25;;;2.70;;
40573;SDS011;26283;49.020;8.644;2022-07-29T12:16:16;3.83;;;3.03;;
40573;SDS011;26283;49.020;8.644;2022-07-29T12:18:42;3.25;;;2.90;;
40573;SDS011;26283;49.020;8.644;2022-07-29T12:21:07;5.35;;;2.85;;
40573;SDS011;26283;49.020;8.644;2022-07-29T12:23:33;2.95;;;2.50;;
40573;SDS011;26283;49.020;8.644;2022-07-29T12:25:59;8.07;;;2.80;;
40573;SDS011;26283;49.020;8.644;2022-07-29T12:28:24;2.80;;;2.60;;
40573;SDS011;26283;49.020;8.644;2022-07-29T12:30:50;2.70;;;2.50;;
40573;SDS011;26283;49.020;8.644;2022-07-29T12:33:18;3.87;;;2.42;;
40573;SDS011;26283;49.020;8.644;2022-07-29T12:35:46;4.87;;;2.80;;
40573;SDS011;26283;49.020;8.644;2022-07-29T12:38:16;2.90;;;2.42;;
40573;SDS011;26283;49.020;8.644;2022-07-29T12:40:43;4.53;;;2.75;;
40573;SDS011;26283;49.020;8.644;2022-07-29T12:43:14;3.15;;;2.80;;
40573;SDS011;26283;49.020;8.644;2022-07-29T12:45:41;3.47;;;2.83;;
40573;SDS011;26283;49.020;8.644;2022-07-29T12:48:09;2.87;;;2.60;;
40573;SDS011;26283;49.020;8.644;2022-07-29T12:50:36;2.80;;;2.58;;
40573;SDS011;26283;49.020;8.644;2022-07-29T12:53:16;3.25;;;2.42;;
40573;SDS011;26283;49.020;8.644;2022-07-29T12:55:42;2.95;;;2.20;;
40573;SDS011;26283;49.020;8.644;2022-07-29T12:58:09;6.80;;;2.62;;
40573;SDS011;26283;49.020;8.644;2022-07-29T13:00:35;3.15;;;2.45;;
40573;SDS011;26283;49.020;8.644;2022-07-29T13:03:01;4.55;;;2.78;;
40573;SDS011;26283;49.020;8.644;2022-07-29T13:05:39;3.50;;;2.70;;
40573;SDS011;26283;49.020;8.644;2022-07-29T13:08:13;2.90;;;2.60;;
40573;SDS011;26283;49.020;8.644;2022-07-29T13:10:40;4.90;;;2.60;;
40573;SDS011;26283;49.020;8.644;2022-07-29T13:13:06;3.17;;;2.22;;
40573;SDS011;26283;49.020;8.644;2022-07-29T13:15:41;2.33;;;2.12;;
40573;SDS011;26283;49.020;8.644;2022-07-29T13:21:13;2.08;;;1.98;;
40573;SDS011;26283;49.020;8.644;2022-07-29T13:23:40;5.25;;;2.65;;
40573;SDS011;26283;49.020;8.644;2022-07-29T13:26:09;3.50;;;1.90;;
40573;SDS011;26283;49.020;8.644;2022-07-29T13:28:41;2.80;;;2.03;;
40573;SDS011;26283;49.020;8.644;2022-07-29T13:31:06;2.50;;;2.00;;
40573;SDS011;26283;49.020;8.644;2022-07-29T13:33:32;2.75;;;2.55;;
40573;SDS011;26283;49.020;8.644;2022-07-29T13:35:57;3.80;;;2.40;;
40573;SDS011;26283;49.020;8.644;2022-07-29T13:38:22;4.45;;;1.90;;
40573;SDS011;26283;49.020;8.644;2022-07-29T13:40:48;3.97;;;2.42;;
40573;SDS011;26283;49.020;8.644;2022-07-29T13:43:13;2.28;;;2.15;;
40573;SDS011;26283;49.020;8.644;2022-07-29T13:45:39;3.60;;;2.10;;
40573;SDS011;26283;49.020;8.644;2022-07-29T13:48:04;1.83;;;1.73;;
40573;SDS011;26283;49.020;8.644;2022-07-29T13:50:31;2.92;;;1.80;;
40573;SDS011;26283;49.020;8.644;2022-07-29T13:52:57;3.35;;;1.83;;
40573;SDS011;26283;49.020;8.644;2022-07-29T13:55:23;2.83;;;1.83;;
40573;SDS011;26283;49.020;8.644;2022-07-29T13:57:48;2.65;;;1.90;;
40573;SDS011;26283;49.020;8.644;2022-07-29T14:00:13;2.92;;;1.83;;
40573;SDS011;26283;49.020;8.644;2022-07-29T14:02:40;2.83;;;1.65;;
40573;SDS011;26283;49.020;8.644;2022-07-29T14:05:06;2.17;;;1.80;;
40573;SDS011;26283;49.020;8.644;2022-07-29T14:07:33;2.42;;;1.85;;
40573;SDS011;26283;49.020;8.644;2022-07-29T14:09:58;2.12;;;1.67;;
40573;SDS011;26283;49.020;8.644;2022-07-29T14:12:24;2.10;;;1.70;;
40573;SDS011;26283;49.020;8.644;2022-07-29T14:14:49;4.68;;;1.70;;
40573;SDS011;26283;49.020;8.644;2022-07-29T14:17:15;2.92;;;1.65;;
40573;SDS011;26283;49.020;8.644;2022-07-29T14:19:40;2.12;;;1.67;;
40573;SDS011;26283;49.020;8.644;2022-07-29T14:22:07;2.08;;;1.40;;
40573;SDS011;26283;49.020;8.644;2022-07-29T14:24:33;1.33;;;1.30;;
40573;SDS011;26283;49.020;8.644;2022-07-29T14:26:59;4.03;;;1.70;;
40573;SDS011;26283;49.020;8.644;2022-07-29T14:29:25;3.65;;;1.75;;
40573;SDS011;26283;49.020;8.644;2022-07-29T14:31:50;3.15;;;1.70;;
40573;SDS011;26283;49.020;8.644;2022-07-29T14:34:15;2.78;;;1.90;;
40573;SDS011;26283;49.020;8.644;2022-07-29T14:36:42;3.30;;;1.62;;
40573;SDS011;26283;49.020;8.644;2022-07-29T14:39:08;2.95;;;1.92;;
40573;SDS011;26283;49.020;8.644;2022-07-29T14:41:33;4.35;;;1.90;;
40573;SDS011;26283;49.020;8.644;2022-07-29T14:43:59;2.20;;;1.45;;
40573;SDS011;26283;49.020;8.644;2022-07-29T14:46:27;4.50;;;1.60;;
40573;SDS011;26283;49.020;8.644;2022-07-29T14:48:53;2.83;;;1.70;;
40573;SDS011;26283;49.020;8.644;2022-07-29T14:51:18;2.00;;;1.77;;
40573;SDS011;26283;49.020;8.644;2022-07-29T14:53:44;3.17;;;1.77;;
40573;SDS011;26283;49.020;8.644;2022-07-29T14:56:09;2.40;;;1.45;;
40573;SDS011;26283;49.020;8.644;2022-07-29T14:58:35;2.67;;;1.80;;
40573;SDS011;26283;49.020;8.644;2022-07-29T15:01:00;2.42;;;1.52;;
40573;SDS011;26283;49.020;8.644;2022-07-29T15:03:26;2.10;;;1.50;;
40573;SDS011;26283;49.020;8.644;2022-07-29T15:05:52;4.93;;;1.73;;
40573;SDS011;26283;49.020;8.644;2022-07-29T15:08:19;3.80;;;1.52;;
40573;SDS011;26283;49.020;8.644;2022-07-29T15:10:44;1.77;;;1.67;;
40573;SDS011;26283;49.020;8.644;2022-07-29T15:13:10;2.97;;;1.60;;
40573;SDS011;26283;49.020;8.644;2022-07-29T15:15:35;5.22;;;1.70;;
40573;SDS011;26283;49.020;8.644;2022-07-29T15:18:00;2.20;;;1.50;;
40573;SDS011;26283;49.020;8.644;2022-07-29T15:20:26;1.60;;;1.50;;
40573;SDS011;26283;49.020;8.644;2022-07-29T15:22:52;1.83;;;1.67;;
40573;SDS011;26283;49.020;8.644;2022-07-29T15:25:18;1.87;;;1.77;;
40573;SDS011;26283;49.020;8.644;2022-07-29T15:27:43;5.78;;;1.92;;
40573;SDS011;26283;49.020;8.644;2022-07-29T15:30:09;2.03;;;1.55;;
40573;SDS011;26283;49.020;8.644;2022-07-29T15:32:35;1.83;;;1.73;;
40573;SDS011;26283;49.020;8.644;2022-07-29T15:35:01;5.05;;;1.60;;